createdAt,value
2022-10-19T00:01:04.184Z,5.29
2022-10-19T00:03:32.413Z,5.20
2022-10-19T00:06:00.809Z,5.29
2022-10-19T00:08:28.890Z,5.18
2022-10-19T00:10:56.696Z,5.26
2022-10-19T00:13:24.619Z,5.22
2022-10-19T00:15:52.514Z,5.08
2022-10-19T00:18:21.872Z,5.16
2022-10-19T00:20:49.781Z,5.12
2022-10-19T00:23:17.798Z,5.10
2022-10-19T00:25:56.148Z,5.09
2022-10-19T00:28:24.142Z,5.09
2022-10-19T00:30:52.131Z,5.09
2022-10-19T00:33:22.635Z,5.09
2022-10-19T00:35:52.122Z,5.08
2022-10-19T00:38:21.272Z,5.08
2022-10-19T00:40:50.267Z,4.98
2022-10-19T00:43:20.453Z,5.05
2022-10-19T00:45:48.608Z,5.02
2022-10-19T00:48:20.108Z,4.96
2022-10-19T00:50:51.394Z,4.91
2022-10-19T00:53:19.486Z,4.53
2022-10-19T00:55:47.950Z,4.81
2022-10-19T00:58:16.353Z,4.17
2022-10-19T01:00:44.470Z,4.72
2022-10-19T01:03:13.525Z,4.68
2022-10-19T01:05:42.452Z,4.20
2022-10-19T01:08:12.788Z,4.64
2022-10-19T01:10:47.928Z,4.62
2022-10-19T01:13:26.989Z,4.59
2022-10-19T01:16:03.025Z,4.55
2022-10-19T01:18:39.321Z,4.51
2022-10-19T01:21:22.669Z,4.46
2022-10-19T01:24:37.014Z,4.34
2022-10-19T01:27:34.242Z,4.36
2022-10-19T01:30:08.601Z,4.32
2022-10-19T01:32:46.648Z,4.28
2022-10-19T01:35:24.625Z,4.24
2022-10-19T01:38:03.657Z,4.05
2022-10-19T01:40:37.926Z,4.12
2022-10-19T01:43:13.234Z,4.19
2022-10-19T01:45:48.616Z,4.17
2022-10-19T01:48:22.681Z,4.14
2022-10-19T01:50:55.205Z,4.12
2022-10-19T01:53:25.578Z,4.09
2022-10-19T01:55:56.538Z,3.99
2022-10-19T01:58:29.397Z,3.98
2022-10-19T02:01:02.696Z,4.06
2022-10-19T02:03:30.850Z,4.04
2022-10-19T02:06:00.616Z,4.04
2022-10-19T02:08:32.819Z,4.02
2022-10-19T02:11:02.688Z,4.00
2022-10-19T02:13:31.749Z,3.98
2022-10-19T02:16:04.820Z,3.96
2022-10-19T02:18:37.617Z,3.81
2022-10-19T02:21:07.272Z,3.94
2022-10-19T02:23:35.500Z,3.93
2022-10-19T02:26:04.071Z,3.91
2022-10-19T02:28:32.951Z,3.88
2022-10-19T02:31:02.483Z,3.89
2022-10-19T02:33:30.956Z,3.71
2022-10-19T02:35:59.938Z,3.87
2022-10-19T02:38:28.364Z,3.83
2022-10-19T02:41:05.601Z,3.83
2022-10-19T02:43:35.879Z,3.51
2022-10-19T02:46:09.464Z,3.79
2022-10-19T02:48:40.130Z,3.67
2022-10-19T02:51:07.955Z,3.73
2022-10-19T02:53:35.980Z,3.65
2022-10-19T02:56:03.969Z,3.69
2022-10-19T02:58:31.787Z,3.61
2022-10-19T03:00:59.823Z,3.61
2022-10-19T03:03:29.114Z,3.66
2022-10-19T03:05:56.927Z,3.44
2022-10-19T03:08:24.916Z,3.62
2022-10-19T03:10:52.912Z,3.19
2022-10-19T03:13:20.740Z,3.61
2022-10-19T03:15:48.874Z,3.61
2022-10-19T03:18:16.814Z,3.59
2022-10-19T03:20:46.095Z,3.59
2022-10-19T03:23:14.075Z,3.50
2022-10-19T03:25:41.998Z,3.46
2022-10-19T03:28:09.848Z,3.49
2022-10-19T03:30:37.853Z,3.60
2022-10-19T03:33:05.846Z,3.59
2022-10-19T03:35:33.667Z,3.57
2022-10-19T03:38:02.914Z,3.56
2022-10-19T03:40:30.791Z,3.54
2022-10-19T03:42:58.601Z,3.53
2022-10-19T03:45:26.524Z,3.51
2022-10-19T03:47:54.447Z,3.51
2022-10-19T03:50:22.308Z,3.50
2022-10-19T03:52:50.675Z,3.49
2022-10-19T03:55:20.048Z,3.47
2022-10-19T03:57:47.886Z,3.44
2022-10-19T04:00:16.616Z,3.42
2022-10-19T04:02:44.614Z,3.42
2022-10-19T04:05:12.492Z,3.40
2022-10-19T04:07:40.415Z,3.40
2022-10-19T04:10:09.056Z,3.35
2022-10-19T04:12:38.253Z,3.32
2022-10-19T04:15:06.887Z,3.36
2022-10-19T04:17:35.108Z,3.34
2022-10-19T04:20:03.133Z,3.32
2022-10-19T04:22:31.060Z,2.91
2022-10-19T04:24:59.077Z,3.28
2022-10-19T04:27:26.858Z,3.25
2022-10-19T04:29:56.109Z,3.20
2022-10-19T04:32:24.059Z,3.25
2022-10-19T04:34:51.939Z,3.24
2022-10-19T04:37:19.951Z,3.23
2022-10-19T04:39:47.824Z,3.22
2022-10-19T04:42:15.615Z,2.94
2022-10-19T04:44:43.625Z,3.20
2022-10-19T04:47:12.938Z,3.20
2022-10-19T04:49:40.744Z,3.23
2022-10-19T04:52:08.644Z,3.14
2022-10-19T04:54:36.581Z,3.21
2022-10-19T04:57:05.207Z,3.19
2022-10-19T04:59:33.297Z,3.20
2022-10-19T05:02:01.235Z,3.18
2022-10-19T05:04:30.622Z,3.20
2022-10-19T05:06:58.554Z,3.17
2022-10-19T05:09:26.676Z,3.16
2022-10-19T05:11:54.626Z,3.16
2022-10-19T05:14:22.918Z,3.18
2022-10-19T05:16:50.731Z,3.14
2022-10-19T05:19:18.961Z,3.14
2022-10-19T05:21:48.277Z,3.03
2022-10-19T05:24:16.138Z,3.00
2022-10-19T05:26:44.100Z,3.09
2022-10-19T05:29:14.692Z,3.03
2022-10-19T05:31:42.647Z,2.87
2022-10-19T05:34:10.789Z,3.05
2022-10-19T05:36:40.262Z,2.67
2022-10-19T05:39:14.578Z,3.06
2022-10-19T05:41:44.550Z,3.04
2022-10-19T05:44:16.181Z,3.02
2022-10-19T05:46:44.602Z,2.83
2022-10-19T05:49:12.887Z,2.88
2022-10-19T05:51:40.953Z,3.01
2022-10-19T05:54:11.268Z,3.01
2022-10-19T05:56:39.862Z,2.66
2022-10-19T05:59:09.397Z,3.01
2022-10-19T06:01:38.106Z,3.01
2022-10-19T06:04:07.602Z,3.03
2022-10-19T06:06:35.804Z,3.05
2022-10-19T06:09:04.688Z,3.06
2022-10-19T06:11:36.514Z,2.98
2022-10-19T06:14:07.312Z,3.13
2022-10-19T06:16:36.021Z,3.09
2022-10-19T06:19:05.111Z,3.14
2022-10-19T06:21:34.799Z,3.15
2022-10-19T06:24:05.910Z,3.25
2022-10-19T06:26:36.344Z,3.28
2022-10-19T06:29:05.365Z,3.29
2022-10-19T06:31:35.028Z,3.40
2022-10-19T06:34:03.685Z,3.51
2022-10-19T06:36:32.772Z,3.75
2022-10-19T06:39:01.987Z,4.11
2022-10-19T06:41:30.317Z,4.53
2022-10-19T06:43:59.633Z,4.98
2022-10-19T06:46:28.569Z,5.39
2022-10-19T06:48:58.216Z,5.72
2022-10-19T06:51:27.779Z,6.15
2022-10-19T06:53:57.071Z,6.15
2022-10-19T06:56:26.771Z,6.68
2022-10-19T06:58:55.296Z,7.03
2022-10-19T07:01:25.336Z,7.26
2022-10-19T07:03:53.947Z,7.53
2022-10-19T07:06:22.477Z,7.71
2022-10-19T07:08:50.539Z,7.93
2022-10-19T07:11:22.589Z,8.07
2022-10-19T07:13:51.026Z,8.10
2022-10-19T07:16:21.034Z,8.01
2022-10-19T07:18:52.186Z,8.05
2022-10-19T07:21:21.929Z,8.16
2022-10-19T07:23:49.870Z,8.35
2022-10-19T07:26:21.362Z,8.53
2022-10-19T07:28:50.018Z,8.46
2022-10-19T07:31:20.338Z,8.48
2022-10-19T07:33:48.529Z,9.12
2022-10-19T07:36:18.019Z,9.54
2022-10-19T07:38:45.862Z,9.96
2022-10-19T07:41:16.325Z,10.41
2022-10-19T07:43:46.433Z,10.30
2022-10-19T07:46:16.241Z,11.36
2022-10-19T07:48:45.361Z,11.59
2022-10-19T07:51:15.457Z,11.91
2022-10-19T07:53:45.648Z,12.47
2022-10-19T07:56:15.297Z,12.59
2022-10-19T07:58:43.853Z,12.66
2022-10-19T08:01:14.269Z,12.65
2022-10-19T08:04:42.761Z,12.83
2022-10-19T08:06:31.085Z,12.55
2022-10-19T08:09:00.902Z,13.12
2022-10-19T08:11:31.343Z,13.40
2022-10-19T08:13:59.905Z,13.58
2022-10-19T08:16:29.869Z,13.62
2022-10-19T08:19:00.307Z,13.64
2022-10-19T08:21:28.860Z,13.96
2022-10-19T08:23:56.873Z,14.21
2022-10-19T08:26:26.725Z,14.19
2022-10-19T08:28:54.642Z,14.34
2022-10-19T08:31:23.787Z,14.43
2022-10-19T08:33:52.155Z,14.64
2022-10-19T08:36:21.408Z,14.91
2022-10-19T08:38:50.151Z,15.05
2022-10-19T08:41:28.480Z,15.26
2022-10-19T08:44:24.246Z,15.15
2022-10-19T08:47:03.392Z,15.36
2022-10-19T08:49:33.243Z,15.50
2022-10-19T08:52:05.881Z,15.71
2022-10-19T08:54:42.087Z,15.69
2022-10-19T08:57:24.481Z,15.72
2022-10-19T09:00:00.431Z,15.04
2022-10-19T09:02:41.583Z,15.66
2022-10-19T09:05:20.246Z,15.74
2022-10-19T09:07:51.596Z,15.86
2022-10-19T09:10:24.931Z,15.88
2022-10-19T09:12:58.649Z,15.86
2022-10-19T09:15:35.040Z,15.76
2022-10-19T09:18:03.413Z,16.24
2022-10-19T09:20:39.341Z,16.43
2022-10-19T09:23:21.184Z,16.43
2022-10-19T09:25:51.332Z,16.75
2022-10-19T09:28:39.683Z,16.85
2022-10-19T09:31:14.340Z,16.95
2022-10-19T09:33:45.219Z,16.87
2022-10-19T09:36:22.402Z,16.82
2022-10-19T09:38:55.773Z,17.01
2022-10-19T09:41:25.468Z,17.19
2022-10-19T09:43:55.445Z,17.15
2022-10-19T09:46:38.895Z,16.97
2022-10-19T09:49:09.550Z,16.72
2022-10-19T09:51:47.314Z,16.55
2022-10-19T09:54:27.674Z,16.65
2022-10-19T09:56:57.532Z,16.82
2022-10-19T09:59:29.729Z,16.96
2022-10-19T10:02:13.053Z,16.92
2022-10-19T10:04:40.864Z,17.02
2022-10-19T10:07:17.452Z,17.14
2022-10-19T10:09:46.267Z,17.27
2022-10-19T10:12:16.728Z,17.46
2022-10-19T10:14:45.998Z,17.38
2022-10-19T10:17:18.954Z,17.64
2022-10-19T10:20:05.431Z,17.71
2022-10-19T10:22:35.653Z,17.44
2022-10-19T10:25:13.793Z,17.07
2022-10-19T10:27:42.142Z,16.82
2022-10-19T10:30:18.034Z,16.58
2022-10-19T10:32:51.021Z,16.71
2022-10-19T10:35:22.478Z,16.75
2022-10-19T10:37:51.262Z,16.67
2022-10-19T10:40:25.523Z,16.75
2022-10-19T10:42:56.149Z,16.71
2022-10-19T10:45:27.309Z,16.71
2022-10-19T10:47:57.863Z,16.73
2022-10-19T10:50:32.964Z,16.73
2022-10-19T10:53:02.698Z,16.75
2022-10-19T10:55:31.933Z,16.87
2022-10-19T10:58:13.858Z,16.99
2022-10-19T11:00:43.196Z,17.13
2022-10-19T11:03:21.418Z,17.23
2022-10-19T11:05:54.368Z,17.30
2022-10-19T11:08:27.683Z,17.22
2022-10-19T11:11:00.976Z,17.26
2022-10-19T11:13:32.596Z,16.77
2022-10-19T11:16:04.991Z,16.25
2022-10-19T11:18:39.690Z,16.78
2022-10-19T11:21:12.871Z,16.73
2022-10-19T11:23:53.159Z,16.76
2022-10-19T11:26:59.845Z,16.73
2022-10-19T11:29:38.301Z,16.57
2022-10-19T11:32:17.073Z,16.53
2022-10-19T11:34:59.369Z,16.56
2022-10-19T11:37:31.544Z,16.37
2022-10-19T11:40:14.119Z,15.99
2022-10-19T11:42:51.862Z,15.37
2022-10-19T11:45:31.619Z,14.80
2022-10-19T11:48:15.696Z,14.42
2022-10-19T11:50:54.411Z,14.02
2022-10-19T11:53:34.136Z,13.14
2022-10-19T11:56:08.179Z,13.45
2022-10-19T11:58:51.409Z,13.73
2022-10-19T12:01:32.054Z,13.58
2022-10-19T12:04:19.247Z,13.55
2022-10-19T12:06:56.312Z,13.56
2022-10-19T12:09:35.260Z,13.44
2022-10-19T12:12:19.294Z,13.64
2022-10-19T12:14:54.044Z,13.82
2022-10-19T12:17:27.040Z,13.96
2022-10-19T12:19:57.589Z,13.76
2022-10-19T12:22:31.505Z,13.64
2022-10-19T12:25:02.527Z,13.54
2022-10-19T12:27:35.444Z,13.28
2022-10-19T12:30:08.133Z,13.23
2022-10-19T12:32:49.605Z,13.14
2022-10-19T12:35:33.895Z,12.92
2022-10-19T12:38:09.937Z,12.77
2022-10-19T12:40:44.560Z,12.77
2022-10-19T12:43:22.870Z,12.65
2022-10-19T12:45:55.740Z,12.50
2022-10-19T12:48:25.173Z,12.26
2022-10-19T12:51:17.863Z,12.12
2022-10-19T12:53:50.182Z,11.98
2022-10-19T12:56:21.832Z,11.88
2022-10-19T12:58:56.521Z,12.15
2022-10-19T13:01:29.516Z,12.14
2022-10-19T13:04:12.127Z,12.71
2022-10-19T13:06:43.786Z,13.26
2022-10-19T13:09:25.473Z,13.80
2022-10-19T13:12:28.158Z,13.84
2022-10-19T13:14:57.225Z,12.95
2022-10-19T13:17:44.071Z,12.43
2022-10-19T13:20:45.509Z,11.86
2022-10-19T13:23:42.042Z,11.61
2022-10-19T13:26:34.121Z,11.30
2022-10-19T13:29:02.524Z,11.17
2022-10-19T13:31:33.111Z,11.37
2022-10-19T13:34:01.400Z,11.34
2022-10-19T13:36:29.444Z,11.38
2022-10-19T13:39:08.713Z,11.71
2022-10-19T13:41:57.101Z,12.31
2022-10-19T13:44:31.079Z,12.77
2022-10-19T13:47:19.172Z,12.97
2022-10-19T13:50:09.347Z,13.47
2022-10-19T13:53:03.547Z,13.38
2022-10-19T13:55:57.536Z,13.80
2022-10-19T13:58:51.902Z,13.83
2022-10-19T14:01:34.113Z,13.14
2022-10-19T14:04:18.795Z,12.80
2022-10-19T14:06:53.385Z,12.32
2022-10-19T14:09:43.922Z,11.98
2022-10-19T14:12:19.943Z,11.61
2022-10-19T14:14:50.282Z,11.28
2022-10-19T14:17:21.518Z,11.16
2022-10-19T14:19:52.071Z,11.00
2022-10-19T14:22:24.436Z,10.87
2022-10-19T14:24:52.747Z,10.78
2022-10-19T14:27:24.597Z,10.54
2022-10-19T14:29:55.411Z,10.37
2022-10-19T14:32:26.203Z,10.19
2022-10-19T14:34:55.103Z,10.08
2022-10-19T14:37:25.965Z,9.83
2022-10-19T14:40:03.179Z,9.81
2022-10-19T14:42:39.971Z,9.76
2022-10-19T14:45:15.479Z,9.33
2022-10-19T14:47:58.421Z,9.44
2022-10-19T14:50:33.872Z,9.46
2022-10-19T14:53:19.324Z,9.02
2022-10-19T14:55:49.426Z,9.24
2022-10-19T14:58:22.001Z,9.16
2022-10-19T15:00:53.286Z,9.08
2022-10-19T15:03:25.714Z,9.02
2022-10-19T15:05:57.568Z,8.97
2022-10-19T15:08:34.048Z,8.86
2022-10-19T15:11:02.054Z,8.79
2022-10-19T15:13:35.169Z,8.45
2022-10-19T15:16:07.294Z,8.60
2022-10-19T15:18:55.666Z,8.56
2022-10-19T15:21:23.851Z,8.09
2022-10-19T15:23:53.571Z,8.44
2022-10-19T15:26:28.672Z,8.41
2022-10-19T15:29:09.390Z,8.33
2022-10-19T15:31:38.730Z,7.95
2022-10-19T15:34:06.704Z,8.20
2022-10-19T15:36:34.817Z,8.12
2022-10-19T15:39:18.214Z,8.06
2022-10-19T15:41:53.998Z,7.95
2022-10-19T15:44:33.220Z,7.91
2022-10-19T15:47:25.453Z,7.88
2022-10-19T15:49:56.961Z,7.79
2022-10-19T15:52:26.058Z,7.74
2022-10-19T15:54:55.699Z,7.67
2022-10-19T15:57:28.538Z,7.63
2022-10-19T15:59:58.066Z,7.52
2022-10-19T16:02:27.834Z,7.54
2022-10-19T16:04:56.496Z,7.52
2022-10-19T16:07:28.427Z,7.50
2022-10-19T16:09:56.463Z,7.47
2022-10-19T16:12:26.371Z,7.43
2022-10-19T16:14:54.690Z,7.40
2022-10-19T16:17:22.833Z,7.35
2022-10-19T16:19:52.541Z,7.32
2022-10-19T16:22:20.517Z,7.11
2022-10-19T16:24:48.493Z,7.16
2022-10-19T16:27:16.494Z,7.10
2022-10-19T16:29:45.580Z,7.05
2022-10-19T16:32:13.978Z,7.06
2022-10-19T16:34:42.184Z,7.10
2022-10-19T16:37:11.541Z,6.97
2022-10-19T16:39:39.438Z,6.91
2022-10-19T16:42:07.349Z,6.90
2022-10-19T16:44:35.277Z,6.68
2022-10-19T16:47:03.285Z,6.29
2022-10-19T16:49:31.348Z,6.92
2022-10-19T16:52:00.829Z,6.90
2022-10-19T16:54:30.841Z,6.87
2022-10-19T16:56:59.092Z,6.86
2022-10-19T16:59:27.801Z,6.83
2022-10-19T17:01:55.834Z,6.81
2022-10-19T17:04:23.718Z,6.80
2022-10-19T17:06:51.734Z,6.78
2022-10-19T17:12:10.166Z,6.75
2022-10-19T17:14:40.586Z,6.61
2022-10-19T17:17:09.021Z,6.68
2022-10-19T17:19:37.701Z,6.69
2022-10-19T17:22:05.941Z,6.58
2022-10-19T17:24:33.909Z,6.64
2022-10-19T17:27:03.965Z,6.61
2022-10-19T17:29:33.599Z,6.57
2022-10-19T17:32:01.470Z,6.50
2022-10-19T17:34:29.555Z,6.47
2022-10-19T17:37:00.394Z,6.44
2022-10-19T17:39:29.946Z,6.42
2022-10-19T17:42:02.215Z,5.64
2022-10-19T17:44:31.669Z,6.30
2022-10-19T17:47:01.591Z,6.40
2022-10-19T17:49:30.315Z,6.42
2022-10-19T17:51:58.454Z,6.42
2022-10-19T17:54:26.491Z,6.40
2022-10-19T17:56:54.529Z,6.38
2022-10-19T17:59:34.621Z,6.24
2022-10-19T18:02:11.495Z,6.22
2022-10-19T18:04:40.110Z,6.31
2022-10-19T18:07:07.957Z,6.30
2022-10-19T18:09:36.119Z,6.18
2022-10-19T18:12:04.984Z,6.08
2022-10-19T18:14:35.096Z,6.24
2022-10-19T18:17:03.321Z,6.22
2022-10-19T18:19:32.918Z,5.38
2022-10-19T18:22:00.741Z,6.18
2022-10-19T18:24:28.884Z,6.17
2022-10-19T18:26:56.744Z,6.17
2022-10-19T18:29:26.542Z,6.08
2022-10-19T18:31:55.386Z,6.05
2022-10-19T18:34:25.101Z,6.12
2022-10-19T18:36:54.983Z,6.09
2022-10-19T18:39:23.463Z,6.08
2022-10-19T18:41:54.544Z,6.03
2022-10-19T18:44:26.287Z,5.91
2022-10-19T18:46:56.094Z,5.53
2022-10-19T18:49:24.035Z,5.94
2022-10-19T18:51:55.121Z,5.91
2022-10-19T18:54:26.538Z,6.02
2022-10-19T18:56:55.126Z,6.01
2022-10-19T18:59:23.088Z,6.01
2022-10-19T19:01:51.343Z,5.98
2022-10-19T19:04:19.385Z,5.97
2022-10-19T19:06:47.182Z,5.95
2022-10-19T19:09:15.368Z,5.94
2022-10-19T19:11:44.602Z,5.92
2022-10-19T19:14:15.124Z,5.43
2022-10-19T19:16:44.434Z,5.73
2022-10-19T19:19:13.901Z,5.83
2022-10-19T19:21:44.238Z,5.69
2022-10-19T19:24:15.658Z,5.75
2022-10-19T19:26:48.353Z,5.73
2022-10-19T19:29:17.328Z,4.91
2022-10-19T19:31:45.390Z,5.71
2022-10-19T19:34:13.357Z,5.52
2022-10-19T19:36:47.292Z,5.74
2022-10-19T19:39:16.342Z,5.73
2022-10-19T19:41:46.693Z,5.70
2022-10-19T19:44:14.744Z,5.65
2022-10-19T19:46:42.678Z,5.53
2022-10-19T19:49:10.621Z,5.60
2022-10-19T19:51:38.565Z,5.57
2022-10-19T19:54:06.871Z,5.57
2022-10-19T19:56:34.917Z,5.59
2022-10-19T19:59:04.789Z,5.24
2022-10-19T20:01:33.425Z,5.47
2022-10-19T20:06:37.191Z,5.32
2022-10-19T20:09:07.156Z,5.49
2022-10-19T20:11:39.639Z,5.39
2022-10-19T20:14:10.724Z,5.45
2022-10-19T20:16:38.634Z,5.43
2022-10-19T20:19:08.994Z,5.41
2022-10-19T20:21:37.450Z,5.38
2022-10-19T20:24:05.730Z,5.28
2022-10-19T20:26:34.042Z,5.36
2022-10-19T20:29:03.916Z,5.32
2022-10-19T20:31:39.397Z,4.80
2022-10-19T20:34:13.949Z,5.26
2022-10-19T20:36:42.326Z,5.25
2022-10-19T20:39:10.874Z,5.25
2022-10-19T20:41:39.201Z,5.25
2022-10-19T20:44:07.075Z,5.26
2022-10-19T20:46:37.255Z,5.15
2022-10-19T20:49:05.681Z,5.19
2022-10-19T20:51:36.795Z,5.15
2022-10-19T20:54:07.155Z,5.10
2022-10-19T20:56:36.546Z,5.07
2022-10-19T20:59:07.625Z,4.96
2022-10-19T21:01:38.897Z,5.03
2022-10-19T21:04:09.332Z,5.05
2022-10-19T21:06:40.931Z,5.03
2022-10-19T21:09:09.988Z,4.91
2022-10-19T21:11:39.825Z,4.93
2022-10-19T21:14:11.535Z,5.03
2022-10-19T21:16:41.706Z,5.06
2022-10-19T21:19:12.473Z,4.94
2022-10-19T21:21:42.884Z,5.01
2022-10-19T21:24:12.720Z,5.12
2022-10-19T21:26:41.103Z,4.86
2022-10-19T21:29:10.609Z,5.13
2022-10-19T21:31:43.085Z,4.97
2022-10-19T21:34:15.216Z,5.20
2022-10-19T21:36:43.271Z,5.20
2022-10-19T21:39:11.145Z,5.21
2022-10-19T21:41:39.474Z,5.11
2022-10-19T21:44:07.631Z,5.15
2022-10-19T21:46:35.733Z,5.11
2022-10-19T21:49:05.242Z,5.19
2022-10-19T21:51:37.612Z,5.17
2022-10-19T21:54:07.099Z,5.17
2022-10-19T21:56:35.157Z,5.15
2022-10-19T21:59:03.017Z,4.87
2022-10-19T22:01:37.321Z,5.17
2022-10-19T22:04:12.515Z,5.17
2022-10-19T22:06:40.962Z,5.15
2022-10-19T22:09:11.240Z,5.14
2022-10-19T22:11:39.260Z,5.13
2022-10-19T22:14:07.456Z,5.12
2022-10-19T22:16:37.017Z,5.12
2022-10-19T22:19:06.078Z,5.12
2022-10-19T22:24:06.696Z,5.11
2022-10-19T22:26:37.002Z,5.10
2022-10-19T22:29:06.237Z,4.66
2022-10-19T22:31:35.448Z,4.97
2022-10-19T22:34:06.114Z,4.96
2022-10-19T22:36:35.511Z,4.99
2022-10-19T22:39:03.708Z,4.95
2022-10-19T22:41:31.679Z,4.96
2022-10-19T22:43:59.616Z,4.61
2022-10-19T22:46:27.516Z,4.95
2022-10-19T22:48:55.468Z,4.93
2022-10-19T22:51:23.563Z,4.81
2022-10-19T22:53:52.895Z,4.90
2022-10-19T22:56:21.035Z,4.87
2022-10-19T22:58:49.208Z,4.85
2022-10-19T23:01:17.797Z,4.84
2022-10-19T23:03:45.849Z,4.82
2022-10-19T23:06:16.077Z,4.71
2022-10-19T23:08:44.465Z,4.59
2022-10-19T23:11:14.512Z,4.70
2022-10-19T23:13:43.299Z,4.72
2022-10-19T23:16:11.445Z,4.70
2022-10-19T23:18:41.583Z,4.70
2022-10-19T23:21:12.803Z,4.68
2022-10-19T23:23:41.493Z,4.68
2022-10-19T23:26:12.330Z,4.68
2022-10-19T23:28:43.880Z,4.56
2022-10-19T23:31:13.953Z,4.65
2022-10-19T23:33:42.889Z,4.62
2022-10-19T23:36:14.507Z,4.62
2022-10-19T23:38:42.852Z,4.48
2022-10-19T23:41:11.021Z,4.47
2022-10-19T23:43:39.789Z,4.42
2022-10-19T23:46:09.724Z,4.55
2022-10-19T23:48:38.120Z,4.54
2022-10-19T23:51:07.925Z,4.38
2022-10-19T23:53:41.509Z,4.48
2022-10-19T23:56:12.637Z,4.05
2022-10-19T23:58:40.739Z,4.33
